Leicester, NC (28748)

2:06 PM EST on February 12, 2016 (GMT -0500)
Worley Cove | | Change Station
CLOSE
Current Station
Personal Weather Station
Location: Leicester, NC
Elevation: 2392 ft
Nearby Weather Stations
Active Advisory: Wind Chill Advisory

Elev 2392 ft 35.69 °N, 82.79 °W | Updated 170 days ago

Overcast
Overcast
37 °F
Feels Like 30 °F
N
10
Wind Variable Wind from NW
Gusts 17 mph

Today
High -- | Low -- °F
--% Chance of Precip.
Yesterday
High -- | Low -- °F
Precip. -- in
Pressure 30.02 in
Visibility 10.0 miles
Clouds Overcast 4100 ft
Windchill 30 °F
Dew Point 28 °F
Humidity 69%
Rainfall in
Snow Depth Not available.
7:21 AM 6:09 PM
Waxing Crescent, 23% visible
METAR KAVL 121854Z 34011KT 10SM OVC041 03/M04 A3000 RMK AO2 SLP166 T00331039
Pressure 30.02 in
Visibility 10.0 miles
Clouds Overcast 4100 ft
Windchill 30 °F
Dew Point 28 °F
Humidity 69%
Rainfall in
Snow Depth Not available.
7:21 AM 6:09 PM
Waxing Crescent, 23% visible
METAR KAVL 121854Z 34011KT 10SM OVC041 03/M04 A3000 RMK AO2 SLP166 T00331039

10-Day Weather Forecast

Almanac

Astronomy

Feb. 12, 2016 Rise Set
Actual Time
Civil Twilight
Nautical Twilight
Astronomical Twilight
Moon
Length of Visible Light
Length of Day
Tomorrow will be .
, % of the Moon is Illuminated

Today's Extremes

State Highs State Lows

Community

WunderPhotos

Upload Photos

1,892,374 photos uploaded!

WunderBlog® & News

Nearby

Air Quality

  Air Quality AQ Index Pollutant
Not available.

Snow Depth

Station Depth Elevation

Earthquake Activity

City Distance Mag. Time & Date
Minimum magnitude displayed is 2.5.

Coastal Water Temperatures

Place Temperature

Stations

Nearby Weather Stations

Station Location Temp. Windchill Dew Point Humidity Wind Precip. Elev Updated Type
                   

Watches & Warnings

Wind Chill Advisory
Issued: 12:28 PM EST Feb. 12, 2016 – National Weather Service

... Wind Chill Advisory remains in effect from midnight tonight to
noon EST Saturday above 3500 feet...

* locations... portions of the central North Carolina mountains.

* Winds... northwest 15 to 25 mph with gusts up to 55 mph.

* Wind chill values... as low as 5 to 15 below zero.

* Impacts... dangerous wind chills may make travel hazardous.

Precautionary/preparedness actions...

A Wind Chill Advisory means that very cold air and strong winds
will combine to generate low wind chills. This will result in
frost bite and lead to hypothermia if precautions are not taken.
If you must venture outdoors... make sure you wear a hat and
gloves.

Stay tuned to NOAA Weather Radio or your favorite source of
weather information for the latest updates. Additional details
can be found at www.Weather.Gov/gsp.